Time;durP1;ratioP1;P1;durP2;ratioP2;P2;SDS_P1;SDS_P2;PMS_P1;PMS_P2;Temp;Humidity;BMP_temperature;BMP_pressure;BME280_temperature;BME280_humidity;BME280_pressure;Samples;Min_cycle;Max_cycle;Signal;HPM_P1;HPM_P2
2024/04/16 00:01:01;;;;;;;0.03;0.03;;;;;;;-139.19;100.00;56970.53;5517077;26;20002;-63
2024/04/16 00:03:26;;;;;;;0.20;0.20;;;;;;;-139.19;100.00;56970.53;5492622;26;19997;-63
2024/04/16 00:05:52;;;;;;;0.00;0.00;;;;;;;-139.19;100.00;56970.53;5491517;26;20008;-63
2024/04/16 00:08:17;;;;;;;0.10;0.10;;;;;;;-139.19;100.00;56970.53;5517708;26;20398;-63
2024/04/16 00:10:42;;;;;;;3.00;0.73;;;;;;;-139.19;100.00;56970.53;5526631;26;20516;-63
2024/04/16 00:13:08;;;;;;;0.13;0.13;;;;;;;-139.19;100.00;56970.53;5527159;26;20001;-63
2024/04/16 00:15:33;;;;;;;0.03;0.03;;;;;;;-139.19;100.00;56970.53;5500446;26;20002;-63
2024/04/16 00:17:59;;;;;;;0.90;0.82;;;;;;;-139.19;100.00;56970.53;5491435;26;19994;-63
2024/04/16 00:20:24;;;;;;;0.10;0.10;;;;;;;-139.19;100.00;56970.53;5491685;26;20010;-63
2024/04/16 00:22:50;;;;;;;0.10;0.10;;;;;;;-139.19;100.00;56970.53;5520125;26;19993;-63
2024/04/16 00:25:15;;;;;;;0.20;0.20;;;;;;;-139.19;100.00;56970.53;5527583;26;19997;-63
2024/04/16 00:27:42;;;;;;;0.50;0.47;;;;;;;-139.19;100.00;56970.53;5527018;26;20409;-63
2024/04/16 00:30:07;;;;;;;0.15;0.15;;;;;;;-139.19;100.00;56970.53;5513204;26;20005;-63
2024/04/16 00:32:33;;;;;;;0.10;0.10;;;;;;;-139.19;100.00;56970.53;5493335;26;20009;-63
2024/04/16 00:34:58;;;;;;;0.08;0.08;;;;;;;-139.19;100.00;56970.53;5527134;26;20341;-63
2024/04/16 00:37:23;;;;;;;0.08;0.08;;;;;;;-139.19;100.00;56970.53;5525281;26;19997;-63
2024/04/16 00:39:49;;;;;;;0.05;0.05;;;;;;;-139.19;100.00;56970.53;5526503;26;20002;-63
2024/04/16 00:42:15;;;;;;;4.47;0.38;;;;;;;-139.19;100.00;56970.53;5508151;26;19998;-63
2024/04/16 00:44:40;;;;;;;0.00;0.00;;;;;;;-139.19;100.00;56970.53;5491491;26;20005;-63
2024/04/16 00:47:08;;;;;;;0.20;0.20;;;;;;;-139.19;100.00;56970.53;5490866;26;19998;-63
2024/04/16 00:49:35;;;;;;;0.05;0.05;;;;;;;-139.19;100.00;56970.53;5522318;26;20438;-63
2024/04/16 00:52:00;;;;;;;0.00;0.00;;;;;;;-139.19;100.00;56970.53;5526159;26;19998;-63
2024/04/16 00:54:26;;;;;;;0.10;0.10;;;;;;;-139.19;100.00;56970.53;5526693;26;20016;-63
2024/04/16 00:56:55;;;;;;;0.00;0.00;;;;;;;-139.19;100.00;56970.53;5526000;26;20452;-63
2024/04/16 00:59:24;;;;;;;0.05;0.05;;;;;;;-139.19;100.00;56970.53;5520991;26;20422;-63
2024/04/16 01:01:49;;;;;;;0.20;0.20;;;;;;;-139.19;100.00;56970.53;5490638;26;20325;-63
2024/04/16 01:04:14;;;;;;;0.20;0.20;;;;;;;-139.19;100.00;56970.53;5493155;26;19994;-63
2024/04/16 01:06:40;;;;;;;2.63;1.20;;;;;;;-139.19;100.00;56970.53;5490803;26;20001;-63
2024/04/16 01:09:08;;;;;;;0.10;0.10;;;;;;;-139.19;100.00;56970.53;5490497;26;20006;-63
2024/04/16 01:11:34;;;;;;;0.30;0.30;;;;;;;-139.19;100.00;56970.53;5490410;26;20010;-63
2024/04/16 01:13:59;;;;;;;0.00;0.00;;;;;;;-139.19;100.00;56970.53;5490442;26;20446;-63
2024/04/16 01:16:25;;;;;;;0.10;0.10;;;;;;;-139.19;100.00;56970.53;5490528;26;20122;-63
2024/04/16 01:18:50;;;;;;;0.10;0.10;;;;;;;-139.19;100.00;56970.53;5502666;26;19994;-63
2024/04/16 01:21:15;;;;;;;2.72;1.00;;;;;;;-139.19;100.00;56970.53;5499912;26;20017;-63
2024/04/16 01:23:41;;;;;;;0.00;0.00;;;;;;;-139.19;100.00;56970.53;5490999;26;20004;-63
2024/04/16 01:26:07;;;;;;;0.08;0.08;;;;;;;-139.19;100.00;56970.53;5526270;26;20318;-63
2024/04/16 01:28:32;;;;;;;0.10;0.10;;;;;;;-139.19;100.00;56970.53;5526544;26;19993;-63
2024/04/16 01:30:57;;;;;;;0.00;0.00;;;;;;;-139.19;100.00;56970.53;5525512;26;19994;-63
2024/04/16 01:33:23;;;;;;;0.10;0.10;;;;;;;-139.19;100.00;56970.53;5510949;26;20325;-63
2024/04/16 01:35:48;;;;;;;0.00;0.00;;;;;;;-139.19;100.00;56970.53;5498141;26;20067;-63
2024/04/16 01:38:14;;;;;;;0.00;0.00;;;;;;;-139.19;100.00;56970.53;5490079;26;19994;-63
2024/04/16 01:40:39;;;;;;;0.00;0.00;;;;;;;-139.19;100.00;56970.53;5525422;26;20005;-63
2024/04/16 01:43:04;;;;;;;0.28;0.28;;;;;;;-139.19;100.00;56970.53;5523361;26;19997;-63
2024/04/16 01:45:30;;;;;;;0.00;0.00;;;;;;;-139.19;100.00;56970.53;5525970;26;20002;-63
2024/04/16 01:47:55;;;;;;;0.10;0.10;;;;;;;-139.19;100.00;56970.53;5519470;26;20322;-63
2024/04/16 01:50:21;;;;;;;0.30;0.30;;;;;;;-139.19;100.00;56970.53;5489944;26;20013;-63
2024/04/16 01:52:46;;;;;;;0.10;0.10;;;;;;;-139.19;100.00;56970.53;5489949;26;20010;-63
2024/04/16 01:55:11;;;;;;;0.10;0.10;;;;;;;-139.19;100.00;56970.53;5525266;26;20325;-63
2024/04/16 01:57:37;;;;;;;0.00;0.00;;;;;;;-139.19;100.00;56970.53;5525465;26;19993;-63
2024/04/16 02:00:03;;;;;;;0.30;0.30;;;;;;;-139.19;100.00;56970.53;5509754;26;19998;-63
2024/04/16 02:02:31;;;;;;;0.10;0.10;;;;;;;-139.19;100.00;56970.53;5504625;26;20001;-63
2024/04/16 02:04:56;;;;;;;0.10;0.10;;;;;;;-139.19;100.00;56970.53;5517157;26;20013;-63
2024/04/16 02:07:21;;;;;;;1.27;1.17;;;;;;;-139.19;100.00;56970.53;5526011;26;19998;-63
2024/04/16 02:09:47;;;;;;;0.00;0.00;;;;;;;-139.19;100.00;56970.53;5525515;26;20001;-63
2024/04/16 02:12:12;;;;;;;0.03;0.03;;;;;;;-139.19;100.00;56970.53;5525283;26;20011;-63
2024/04/16 02:14:38;;;;;;;0.20;0.20;;;;;;;-139.19;100.00;56970.53;5521086;26;20527;-63
2024/04/16 02:17:03;;;;;;;7.22;0.75;;;;;;;-139.19;100.00;56970.53;5489401;26;20395;-63
2024/04/16 02:19:28;;;;;;;0.47;0.47;;;;;;;-139.19;100.00;56970.53;5504137;26;20038;-63
2024/04/16 02:21:54;;;;;;;0.10;0.10;;;;;;;-139.19;100.00;56970.53;5525857;26;19993;-63
2024/04/16 02:24:20;;;;;;;0.10;0.10;;;;;;;-139.19;100.00;56970.53;5525119;26;20008;-63
2024/04/16 02:26:45;;;;;;;0.00;0.00;;;;;;;-139.19;100.00;56970.53;5525081;26;19998;-63
2024/04/16 02:29:10;;;;;;;0.05;0.05;;;;;;;-139.19;100.00;56970.53;5524041;26;20005;-63
2024/04/16 02:31:36;;;;;;;0.10;0.10;;;;;;;-139.19;100.00;56970.53;5524775;26;20036;-63
2024/04/16 02:34:01;;;;;;;0.10;0.10;;;;;;;-139.19;100.00;56970.53;5524751;26;20009;-63
2024/04/16 02:36:26;;;;;;;0.10;0.10;;;;;;;-139.19;100.00;56970.53;5504669;26;20002;-63
2024/04/16 02:38:52;;;;;;;0.30;0.30;;;;;;;-139.19;100.00;56970.53;5525437;26;19997;-63
2024/04/16 02:41:17;;;;;;;0.00;0.00;;;;;;;-139.19;100.00;56970.53;5525738;26;19989;-63
2024/04/16 02:43:42;;;;;;;0.10;0.10;;;;;;;-139.19;100.00;56970.53;5525695;26;20333;-63
2024/04/16 02:46:08;;;;;;;3.30;0.50;;;;;;;-139.19;100.00;56970.53;5492806;26;20490;-63
2024/04/16 02:48:33;;;;;;;0.00;0.00;;;;;;;-139.19;100.00;56970.53;5488897;26;20079;-64
2024/04/16 02:51:00;;;;;;;0.10;0.10;;;;;;;-139.19;100.00;56970.53;5513044;26;20039;-64
2024/04/16 02:53:26;;;;;;;1.48;1.08;;;;;;;-139.19;100.00;56970.53;5524162;26;19997;-63
2024/04/16 02:55:51;;;;;;;0.10;0.10;;;;;;;-139.19;100.00;56970.53;5525357;26;20070;-63
2024/04/16 02:58:17;;;;;;;0.40;0.40;;;;;;;-139.19;100.00;56970.53;5524353;26;20436;-63
2024/04/16 03:00:42;;;;;;;0.10;0.10;;;;;;;-139.19;100.00;56970.53;5520536;26;20022;-63
2024/04/16 03:03:12;;;;;;;0.10;0.10;;;;;;;-139.19;100.00;56970.53;5492364;26;19998;-63
2024/04/16 03:05:37;;;;;;;3.75;0.60;;;;;;;-139.19;100.00;56970.53;5507025;26;20436;-63
2024/04/16 03:08:03;;;;;;;0.00;0.00;;;;;;;-139.19;100.00;56970.53;5523695;26;20035;-63
2024/04/16 03:10:29;;;;;;;0.00;0.00;;;;;;;-139.19;100.00;56970.53;5503670;26;20029;-63
2024/04/16 03:12:54;;;;;;;0.15;0.10;;;;;;;-139.19;100.00;56970.53;5497833;26;20018;-63
2024/04/16 03:15:19;;;;;;;0.00;0.00;;;;;;;-139.19;100.00;56970.53;5513057;26;20001;-63
2024/04/16 03:17:45;;;;;;;0.10;0.10;;;;;;;-139.19;100.00;56970.53;5529128;26;19998;-64
2024/04/16 03:20:10;;;;;;;0.17;0.17;;;;;;;-139.19;100.00;56970.53;5526546;26;19993;-63
2024/04/16 03:22:36;;;;;;;4.68;0.20;;;;;;;-139.19;100.00;56970.53;5492752;26;20013;-63
2024/04/16 03:25:02;;;;;;;0.08;0.08;;;;;;;-139.19;100.00;56970.53;5492582;26;20427;-63
2024/04/16 03:27:27;;;;;;;0.00;0.00;;;;;;;-139.19;100.00;56970.53;5527011;26;20433;-63
2024/04/16 03:29:53;;;;;;;0.43;0.43;;;;;;;-139.19;100.00;56970.53;5504902;26;20013;-63
2024/04/16 03:32:18;;;;;;;0.10;0.10;;;;;;;-139.19;100.00;56970.53;5521947;26;19997;-63
2024/04/16 03:34:43;;;;;;;0.20;0.20;;;;;;;-139.19;100.00;56970.53;5492517;26;20009;-63
2024/04/16 03:37:09;;;;;;;0.10;0.10;;;;;;;-139.19;100.00;56970.53;5515243;26;20016;-63
2024/04/16 03:39:34;;;;;;;0.00;0.00;;;;;;;-139.19;100.00;56970.53;5527687;26;19997;-63
2024/04/16 03:42:00;;;;;;;0.60;0.60;;;;;;;-139.19;100.00;56970.53;5527148;26;20016;-64
2024/04/16 03:44:25;;;;;;;0.00;0.00;;;;;;;-139.19;100.00;56970.53;5504327;26;20013;-63
2024/04/16 03:46:50;;;;;;;0.10;0.10;;;;;;;-139.19;100.00;56970.53;5491598;26;20335;-63
2024/04/16 03:49:15;;;;;;;0.00;0.00;;;;;;;-139.19;100.00;56970.53;5492518;26;20014;-64
2024/04/16 03:51:41;;;;;;;0.10;0.10;;;;;;;-139.19;100.00;56970.53;5502363;26;20009;-63
2024/04/16 03:54:06;;;;;;;0.38;0.38;;;;;;;-139.19;100.00;56970.53;5511741;26;20379;-63
2024/04/16 03:56:32;;;;;;;5.95;0.80;;;;;;;-139.19;100.00;56970.53;5492524;26;20490;-63
2024/04/16 03:59:16;;;;;;;0.00;0.00;;;;;;;-139.19;100.00;56970.53;5506670;26;20012;-63
2024/04/16 04:01:42;;;;;;;0.55;0.50;;;;;;;-139.19;100.00;56970.53;5480723;26;19997;-63
2024/04/16 04:04:08;;;;;;;0.00;0.00;;;;;;;-139.19;100.00;56970.53;5526612;26;20359;-63
2024/04/16 04:06:33;;;;;;;0.10;0.10;;;;;;;-139.19;100.00;56970.53;5525124;26;19993;-63
2024/04/16 04:08:59;;;;;;;0.10;0.10;;;;;;;-139.19;100.00;56970.53;5491392;26;20315;-64
2024/04/16 04:11:25;;;;;;;0.40;0.28;;;;;;;-139.19;100.00;56970.53;5481393;26;20006;-63
2024/04/16 04:13:50;;;;;;;0.10;0.10;;;;;;;-139.19;100.00;56970.53;5496952;26;20074;-63
2024/04/16 04:16:16;;;;;;;0.10;0.10;;;;;;;-139.19;100.00;56970.53;5491288;26;19998;-63
2024/04/16 04:18:41;;;;;;;0.00;0.00;;;;;;;-139.19;100.00;56970.53;5491263;26;20006;-64
2024/04/16 04:21:07;;;;;;;0.10;0.10;;;;;;;-139.19;100.00;56970.53;5491209;26;20323;-63
2024/04/16 04:23:32;;;;;;;0.00;0.00;;;;;;;-139.19;100.00;56970.53;5491192;26;19994;-63
2024/04/16 04:25:58;;;;;;;0.10;0.10;;;;;;;-139.19;100.00;56970.53;5491092;26;19994;-64
2024/04/16 04:28:24;;;;;;;0.10;0.10;;;;;;;-139.19;100.00;56970.53;5491148;26;20535;-63
2024/04/16 04:30:50;;;;;;;0.93;0.47;;;;;;;-139.19;100.00;56970.53;5490976;26;19998;-64
2024/04/16 04:33:15;;;;;;;0.10;0.10;;;;;;;-139.19;100.00;56970.53;5491071;26;20005;-64
2024/04/16 04:35:41;;;;;;;1.75;1.05;;;;;;;-139.19;100.00;56970.53;5490937;26;19994;-64
2024/04/16 04:38:06;;;;;;;0.00;0.00;;;;;;;-139.19;100.00;56970.53;5491013;26;20005;-64
2024/04/16 04:40:35;;;;;;;0.20;0.20;;;;;;;-139.19;100.00;56970.53;5490918;26;20001;-64
2024/04/16 04:43:01;;;;;;;0.10;0.10;;;;;;;-139.19;100.00;56970.53;5490832;26;20018;-64
2024/04/16 04:45:26;;;;;;;0.03;0.03;;;;;;;-139.19;100.00;56970.53;5490833;26;20005;-64
2024/04/16 04:47:52;;;;;;;0.10;0.10;;;;;;;-139.19;100.00;56970.53;5490813;26;20070;-64
2024/04/16 04:50:17;;;;;;;0.63;0.50;;;;;;;-139.19;100.00;56970.53;5490636;26;20010;-63
2024/04/16 04:52:42;;;;;;;0.10;0.10;;;;;;;-139.19;100.00;56970.53;5490697;26;20026;-64
2024/04/16 04:55:08;;;;;;;0.10;0.10;;;;;;;-139.19;100.00;56970.53;5490731;26;19998;-64
2024/04/16 04:57:33;;;;;;;0.10;0.10;;;;;;;-139.19;100.00;56970.53;5490513;26;20070;-63
2024/04/16 04:59:58;;;;;;;0.10;0.10;;;;;;;-139.19;100.00;56970.53;5490598;26;20461;-63
2024/04/16 05:02:24;;;;;;;0.10;0.10;;;;;;;-139.19;100.00;56970.53;5490539;26;20005;-63
2024/04/16 05:04:49;;;;;;;3.72;0.85;;;;;;;-139.19;100.00;56970.53;5490501;26;20005;-63
2024/04/16 05:07:15;;;;;;;0.25;0.25;;;;;;;-139.19;100.00;56970.53;5490488;26;19994;-64
2024/04/16 05:09:40;;;;;;;0.10;0.10;;;;;;;-139.19;100.00;56970.53;5490536;26;19994;-64
2024/04/16 05:12:05;;;;;;;5.45;1.23;;;;;;;-139.19;100.00;56970.53;5490352;26;19998;-63
2024/04/16 05:14:31;;;;;;;0.22;0.22;;;;;;;-139.19;100.00;56970.53;5490432;26;19991;-64
2024/04/16 05:16:56;;;;;;;0.10;0.10;;;;;;;-139.19;100.00;56970.53;5490368;26;20031;-64
2024/04/16 05:19:22;;;;;;;0.10;0.10;;;;;;;-139.19;100.00;56970.53;5490411;26;19998;-63
2024/04/16 05:21:47;;;;;;;0.20;0.20;;;;;;;-139.19;100.00;56970.53;5490325;26;20005;-63
2024/04/16 05:24:13;;;;;;;0.10;0.10;;;;;;;-139.19;100.00;56970.53;5489745;26;19994;-63
2024/04/16 05:26:38;;;;;;;0.08;0.08;;;;;;;-139.19;100.00;56970.53;5490292;26;19994;-63
2024/04/16 05:29:03;;;;;;;0.15;0.15;;;;;;;-139.19;100.00;56970.53;5490206;26;20039;-63
2024/04/16 05:31:29;;;;;;;0.57;0.35;;;;;;;-139.19;100.00;56970.53;5490171;26;20004;-63
2024/04/16 05:33:54;;;;;;;0.30;0.30;;;;;;;-139.19;100.00;56970.53;5490127;26;19994;-63
2024/04/16 05:36:20;;;;;;;0.03;0.03;;;;;;;-139.19;100.00;56970.53;5490101;26;20066;-63
2024/04/16 05:38:45;;;;;;;0.03;0.03;;;;;;;-139.19;100.00;56970.53;5490048;26;19994;-63
2024/04/16 05:41:10;;;;;;;0.10;0.10;;;;;;;-139.19;100.00;56970.53;5490072;26;20005;-63
2024/04/16 05:43:36;;;;;;;0.17;0.17;;;;;;;-139.19;100.00;56970.53;5489982;26;19994;-63
2024/04/16 05:46:01;;;;;;;0.10;0.10;;;;;;;-139.19;100.00;56970.53;5489955;26;20338;-63
2024/04/16 05:48:26;;;;;;;0.10;0.10;;;;;;;-139.19;100.00;56970.53;5489840;26;20001;-63
2024/04/16 05:50:52;;;;;;;0.10;0.10;;;;;;;-139.19;100.00;56970.53;5489777;26;20009;-63
2024/04/16 05:53:17;;;;;;;0.10;0.10;;;;;;;-139.19;100.00;56970.53;5489917;26;20012;-63
2024/04/16 05:55:43;;;;;;;0.20;0.20;;;;;;;-139.19;100.00;56970.53;5489779;26;19994;-63
2024/04/16 05:58:10;;;;;;;0.00;0.00;;;;;;;-139.19;100.00;56970.53;5489850;26;20026;-63
2024/04/16 06:00:38;;;;;;;0.08;0.08;;;;;;;-139.19;100.00;56970.53;5489757;26;20441;-63
2024/04/16 06:03:04;;;;;;;6.60;0.90;;;;;;;-139.19;100.00;56970.53;5489635;26;20066;-63
2024/04/16 06:05:29;;;;;;;0.13;0.13;;;;;;;-139.19;100.00;56970.53;5489555;26;20010;-63
2024/04/16 06:07:58;;;;;;;0.15;0.15;;;;;;;-139.19;100.00;56970.53;5489527;26;20009;-63
2024/04/16 06:10:23;;;;;;;0.25;0.20;;;;;;;-139.19;100.00;56970.53;5489445;26;20031;-63
2024/04/16 06:12:49;;;;;;;0.00;0.00;;;;;;;-139.19;100.00;56970.53;5489508;26;20080;-63
2024/04/16 06:15:14;;;;;;;0.00;0.00;;;;;;;-139.19;100.00;56970.53;5489488;26;20085;-63
2024/04/16 06:17:40;;;;;;;0.10;0.10;;;;;;;-139.19;100.00;56970.53;5489381;26;20022;-63
2024/04/16 06:20:07;;;;;;;0.10;0.10;;;;;;;-139.19;100.00;56970.53;5489345;26;20353;-63
2024/04/16 06:22:33;;;;;;;0.10;0.08;;;;;;;-139.19;100.00;56970.53;5489380;26;19998;-63
2024/04/16 06:24:58;;;;;;;0.22;0.22;;;;;;;-139.19;100.00;56970.53;5489195;26;20005;-63
2024/04/16 06:27:23;;;;;;;0.70;0.70;;;;;;;-139.19;100.00;56970.53;5489178;26;20522;-63
2024/04/16 06:29:49;;;;;;;0.10;0.10;;;;;;;-139.19;100.00;56970.53;5489165;26;20005;-63
2024/04/16 06:32:16;;;;;;;0.10;0.10;;;;;;;-139.19;100.00;56970.53;5488935;26;20042;-63
2024/04/16 06:34:41;;;;;;;0.20;0.20;;;;;;;-139.19;100.00;56970.53;5489041;26;20122;-63
2024/04/16 06:37:06;;;;;;;0.03;0.03;;;;;;;-139.19;100.00;56970.53;5492375;26;20006;-64
2024/04/16 06:39:32;;;;;;;0.10;0.10;;;;;;;-139.19;100.00;56970.53;5492691;26;20022;-63
2024/04/16 06:42:00;;;;;;;0.00;0.00;;;;;;;-139.19;100.00;56970.53;5492593;26;20005;-63
2024/04/16 06:44:26;;;;;;;0.00;0.00;;;;;;;-139.19;100.00;56970.53;5492641;26;20002;-63
2024/04/16 06:46:52;;;;;;;0.10;0.10;;;;;;;-139.19;100.00;56970.53;5492596;26;20009;-63
2024/04/16 06:49:17;;;;;;;0.65;0.45;;;;;;;-139.19;100.00;56970.53;5492512;26;19998;-63
2024/04/16 06:51:42;;;;;;;0.20;0.20;;;;;;;-139.19;100.00;56970.53;5492379;26;19998;-63
2024/04/16 06:54:08;;;;;;;0.10;0.10;;;;;;;-139.19;100.00;56970.53;5492427;26;20065;-64
2024/04/16 06:56:34;;;;;;;0.10;0.10;;;;;;;-139.19;100.00;56970.53;5492397;26;20040;-63
2024/04/16 06:58:59;;;;;;;0.10;0.10;;;;;;;-139.19;100.00;56970.53;5492504;26;20006;-63
2024/04/16 07:01:26;;;;;;;0.10;0.10;;;;;;;-139.19;100.00;56970.53;5492693;26;20362;-64
2024/04/16 07:03:52;;;;;;;0.10;0.10;;;;;;;-139.19;100.00;56970.53;5492672;26;19994;-63
2024/04/16 07:06:17;;;;;;;0.00;0.00;;;;;;;-139.19;100.00;56970.53;5492508;26;20066;-63
2024/04/16 07:08:42;;;;;;;0.20;0.20;;;;;;;-139.19;100.00;56970.53;5492567;26;20009;-63
2024/04/16 07:11:07;;;;;;;0.40;0.40;;;;;;;-139.19;100.00;56970.53;5492473;26;20437;-63
2024/04/16 07:13:33;;;;;;;0.10;0.10;;;;;;;-139.19;100.00;56970.53;5492452;26;19994;-63
2024/04/16 07:15:58;;;;;;;0.10;0.10;;;;;;;-139.19;100.00;56970.53;5492454;26;20415;-63
2024/04/16 07:18:24;;;;;;;0.10;0.10;;;;;;;-139.19;100.00;56970.53;5492436;26;19998;-63
2024/04/16 07:20:51;;;;;;;0.10;0.10;;;;;;;-139.19;100.00;56970.53;5492431;26;20491;-63
2024/04/16 07:23:16;;;;;;;0.70;0.52;;;;;;;-139.19;100.00;56970.53;5492354;26;20314;-63
2024/04/16 07:25:44;;;;;;;0.10;0.10;;;;;;;-139.19;100.00;56970.53;5492315;26;20001;-63
2024/04/16 07:28:11;;;;;;;0.17;0.17;;;;;;;-139.19;100.00;56970.53;5492340;26;19994;-63
2024/04/16 07:30:37;;;;;;;0.10;0.10;;;;;;;-139.19;100.00;56970.53;5492187;26;19994;-64
2024/04/16 07:33:03;;;;;;;0.20;0.20;;;;;;;-139.19;100.00;56970.53;5492189;26;20074;-63
2024/04/16 07:35:29;;;;;;;0.20;0.20;;;;;;;-139.19;100.00;56970.53;5492227;26;19995;-64
2024/04/16 07:37:54;;;;;;;0.10;0.10;;;;;;;-139.19;100.00;56970.53;5492193;26;20326;-63
2024/04/16 07:40:19;;;;;;;0.08;0.08;;;;;;;-139.19;100.00;56970.53;5492139;26;20450;-63
2024/04/16 07:42:45;;;;;;;0.10;0.10;;;;;;;-139.19;100.00;56970.53;5492135;26;19990;-63
2024/04/16 07:45:10;;;;;;;0.10;0.10;;;;;;;-139.19;100.00;56970.53;5492103;26;19998;-64
2024/04/16 07:47:35;;;;;;;0.03;0.03;;;;;;;-139.19;100.00;56970.53;5491923;26;20030;-63
2024/04/16 07:50:01;;;;;;;0.13;0.13;;;;;;;-139.19;100.00;56970.53;5491640;26;20002;-63
2024/04/16 07:52:26;;;;;;;0.10;0.10;;;;;;;-139.19;100.00;56970.53;5491574;26;20088;-63
2024/04/16 07:54:51;;;;;;;1.73;1.13;;;;;;;-139.19;100.00;56970.53;5491595;26;20353;-63
2024/04/16 07:57:17;;;;;;;0.03;0.03;;;;;;;-139.19;100.00;56970.53;5491429;26;20384;-63
2024/04/16 07:59:42;;;;;;;0.20;0.20;;;;;;;-139.19;100.00;56970.53;5491854;26;20002;-63
2024/04/16 08:02:07;;;;;;;1.35;0.70;;;;;;;-139.19;100.00;56970.53;5491763;26;20299;-63
2024/04/16 08:04:33;;;;;;;0.10;0.10;;;;;;;-139.19;100.00;56970.53;5491726;26;19990;-63
2024/04/16 08:06:58;;;;;;;0.10;0.10;;;;;;;-139.19;100.00;56970.53;5491739;26;19990;-64
2024/04/16 08:09:23;;;;;;;0.10;0.10;;;;;;;-139.19;100.00;56970.53;5491714;26;20001;-64
2024/04/16 08:11:49;;;;;;;0.03;0.03;;;;;;;-139.19;100.00;56970.53;5491568;26;20001;-64
2024/04/16 08:14:17;;;;;;;0.10;0.10;;;;;;;-139.19;100.00;56970.53;5491619;26;20354;-64
2024/04/16 08:16:43;;;;;;;2.53;0.70;;;;;;;-139.19;100.00;56970.53;5491543;26;19994;-63
2024/04/16 08:19:08;;;;;;;0.10;0.10;;;;;;;-139.19;100.00;56970.53;5491669;26;20067;-64
2024/04/16 08:21:33;;;;;;;1.45;0.73;;;;;;;-139.19;100.00;56970.53;5491513;26;20062;-64
2024/04/16 08:23:59;;;;;;;0.00;0.00;;;;;;;-139.19;100.00;56970.53;5491515;26;19998;-63
2024/04/16 08:26:24;;;;;;;0.00;0.00;;;;;;;-139.19;100.00;56970.53;5491460;26;20379;-64
2024/04/16 08:28:49;;;;;;;0.00;0.00;;;;;;;-139.19;100.00;56970.53;5491447;26;20018;-63
2024/04/16 08:31:15;;;;;;;0.00;0.00;;;;;;;-139.19;100.00;56970.53;5491296;26;20471;-63
2024/04/16 08:33:40;;;;;;;0.22;0.22;;;;;;;-139.19;100.00;56970.53;5491363;26;20000;-63
2024/04/16 08:36:06;;;;;;;0.05;0.05;;;;;;;-139.19;100.00;56970.53;5491305;26;20062;-64
2024/04/16 08:38:31;;;;;;;0.10;0.10;;;;;;;-139.19;100.00;56970.53;5491612;26;20026;-63
2024/04/16 08:40:56;;;;;;;0.57;0.43;;;;;;;-139.19;100.00;56970.53;5491192;26;19995;-64
2024/04/16 08:43:24;;;;;;;0.10;0.10;;;;;;;-139.19;100.00;56970.53;5491214;26;19998;-64
2024/04/16 08:45:51;;;;;;;0.00;0.00;;;;;;;-139.19;100.00;56970.53;5491211;26;20001;-64
2024/04/16 08:48:17;;;;;;;0.10;0.10;;;;;;;-139.19;100.00;56970.53;5491252;26;20039;-63
2024/04/16 08:50:43;;;;;;;0.10;0.10;;;;;;;-139.19;100.00;56970.53;5490694;26;19994;-63
2024/04/16 08:53:09;;;;;;;0.10;0.10;;;;;;;-139.19;100.00;56970.53;5490776;26;20005;-64
2024/04/16 08:55:35;;;;;;;0.10;0.10;;;;;;;-139.19;100.00;56970.53;5490679;26;20005;-64
2024/04/16 08:58:00;;;;;;;0.20;0.20;;;;;;;-139.19;100.00;56970.53;5489665;26;20315;-64
2024/04/16 09:00:26;;;;;;;0.10;0.10;;;;;;;-139.19;100.00;56970.53;5490950;26;19998;-63
2024/04/16 09:02:52;;;;;;;0.10;0.10;;;;;;;-139.19;100.00;56970.53;5491031;26;20334;-63
2024/04/16 09:05:18;;;;;;;0.00;0.00;;;;;;;-139.19;100.00;56970.53;5490834;26;19998;-64
2024/04/16 09:07:43;;;;;;;0.10;0.10;;;;;;;-139.19;100.00;56970.53;5490834;26;20002;-64
2024/04/16 09:10:12;;;;;;;0.20;0.10;;;;;;;-139.19;100.00;56970.53;5490809;26;19994;-64
2024/04/16 09:12:41;;;;;;;0.00;0.00;;;;;;;-139.19;100.00;56970.53;5490824;26;19995;-64
2024/04/16 09:15:06;;;;;;;0.10;0.10;;;;;;;-139.19;100.00;56970.53;5490837;26;20004;-63
2024/04/16 09:17:32;;;;;;;0.00;0.00;;;;;;;-139.19;100.00;56970.53;5490719;26;19994;-64
2024/04/16 09:20:00;;;;;;;0.00;0.00;;;;;;;-139.19;100.00;56970.53;5490669;26;20419;-64
2024/04/16 09:22:26;;;;;;;0.08;0.08;;;;;;;-139.19;100.00;56970.53;5490694;26;20322;-64
2024/04/16 09:24:51;;;;;;;0.00;0.00;;;;;;;-139.19;100.00;56970.53;5458543;26;20010;-64
2024/04/16 09:27:16;;;;;;;0.00;0.00;;;;;;;-139.19;100.00;56970.53;5490669;26;20040;-64
2024/04/16 09:29:42;;;;;;;0.00;0.00;;;;;;;-139.19;100.00;56970.53;5490525;26;20067;-64
2024/04/16 09:32:07;;;;;;;0.00;0.00;;;;;;;-139.19;100.00;56970.53;5490536;26;20005;-64
2024/04/16 09:34:33;;;;;;;0.00;0.00;;;;;;;-139.19;100.00;56970.53;5490358;26;19994;-63
2024/04/16 09:36:59;;;;;;;0.05;0.05;;;;;;;-139.19;100.00;56970.53;5490145;26;20118;-64
2024/04/16 09:39:25;;;;;;;0.20;0.20;;;;;;;-139.19;100.00;56970.53;5490162;26;20001;-64
2024/04/16 09:41:52;;;;;;;0.80;0.45;;;;;;;-139.19;100.00;56970.53;5490052;26;19997;-64
2024/04/16 09:44:18;;;;;;;0.10;0.10;;;;;;;-139.19;100.00;56970.53;5490036;26;20004;-63
2024/04/16 09:46:44;;;;;;;0.00;0.00;;;;;;;-139.19;100.00;56970.53;5489936;26;20006;-64
2024/04/16 09:49:13;;;;;;;0.00;0.00;;;;;;;-139.19;100.00;56970.53;5489990;26;19998;-64
2024/04/16 09:51:39;;;;;;;0.00;0.00;;;;;;;-139.19;100.00;56970.53;5489907;26;20026;-63
2024/04/16 09:54:06;;;;;;;0.05;0.05;;;;;;;-139.19;100.00;56970.53;5489801;26;19994;-63
2024/04/16 09:56:35;;;;;;;0.00;0.00;;;;;;;-139.19;100.00;56970.53;5489749;26;20378;-64
2024/04/16 09:59:01;;;;;;;0.00;0.00;;;;;;;-139.19;100.00;56970.53;5489966;26;19994;-63
2024/04/16 10:01:29;;;;;;;0.00;0.00;;;;;;;-139.19;100.00;56970.53;5490010;26;20005;-63
2024/04/16 10:03:55;;;;;;;0.10;0.10;;;;;;;-139.19;100.00;56970.53;5489983;26;20038;-63
2024/04/16 10:06:20;;;;;;;0.10;0.10;;;;;;;-139.19;100.00;56970.53;5489799;26;20005;-63
2024/04/16 10:08:46;;;;;;;0.00;0.00;;;;;;;-139.19;100.00;56970.53;5489885;26;20360;-63
2024/04/16 10:11:12;;;;;;;0.35;0.35;;;;;;;-139.19;100.00;56970.53;5492009;26;20006;-63
2024/04/16 10:13:38;;;;;;;0.00;0.00;;;;;;;-139.19;100.00;56970.53;5493413;26;20422;-64
2024/04/16 10:16:12;;;;;;;0.03;0.03;;;;;;;-139.19;100.00;56970.53;5493402;26;19994;-64
2024/04/16 10:18:38;;;;;;;0.30;0.30;;;;;;;-139.19;100.00;56970.53;5493413;26;19998;-63
2024/04/16 10:21:04;;;;;;;0.10;0.10;;;;;;;-139.19;100.00;56970.53;5493312;26;20005;-63
2024/04/16 10:23:29;;;;;;;0.10;0.10;;;;;;;-139.19;100.00;56970.53;5493225;26;20327;-63
2024/04/16 10:25:55;;;;;;;0.00;0.00;;;;;;;-139.19;100.00;56970.53;5493226;26;20098;-63
2024/04/16 10:28:33;;;;;;;0.10;0.10;;;;;;;-139.19;100.00;56970.53;5493137;26;20418;-63
2024/04/16 10:31:03;;;;;;;0.00;0.00;;;;;;;-139.19;100.00;56970.53;5493106;26;20029;-64
2024/04/16 10:33:35;;;;;;;0.10;0.10;;;;;;;-139.19;100.00;56970.53;5493073;26;20002;-64
2024/04/16 10:36:00;;;;;;;0.10;0.10;;;;;;;-139.19;100.00;56970.53;5492781;26;20005;-64
2024/04/16 10:38:26;;;;;;;0.00;0.00;;;;;;;-139.19;100.00;56970.53;5492739;26;20329;-64
2024/04/16 10:40:58;;;;;;;0.00;0.00;;;;;;;-139.19;100.00;56970.53;5492739;26;20076;-64
2024/04/16 10:43:24;;;;;;;0.00;0.00;;;;;;;-139.19;100.00;56970.53;5492688;26;20009;-64
2024/04/16 10:45:50;;;;;;;0.10;0.10;;;;;;;-139.19;100.00;56970.53;5492617;26;20359;-63
2024/04/16 10:48:22;;;;;;;1.75;0.57;;;;;;;-139.19;100.00;56970.53;5492625;26;19994;-64
2024/04/16 10:50:49;;;;;;;0.00;0.00;;;;;;;-139.19;100.00;56970.53;5492530;26;20438;-63
2024/04/16 10:53:18;;;;;;;0.00;0.00;;;;;;;-139.19;100.00;56970.53;5492536;26;19998;-64
2024/04/16 10:55:44;;;;;;;0.70;0.47;;;;;;;-139.19;100.00;56970.53;5492472;26;20389;-64
2024/04/16 10:58:14;;;;;;;0.47;0.32;;;;;;;-139.19;100.00;56970.53;5492358;26;19998;-63
2024/04/16 11:00:40;;;;;;;0.68;0.55;;;;;;;-139.19;100.00;56970.53;5492520;26;20034;-64
2024/04/16 11:03:05;;;;;;;0.22;0.22;;;;;;;-139.19;100.00;56970.53;5492355;26;19994;-63